sensor_id;sensor_type;location;lat;lon;timestamp;pressure;altitude;pressure_sealevel;temperature;humidity
62712;BME280;48772;55.586;37.730;2023-11-21T00:00:35;98769.66;;;-7.04;100.00
62712;BME280;48772;55.586;37.730;2023-11-21T00:03:01;98755.97;;;-7.09;100.00
62712;BME280;48772;55.586;37.730;2023-11-21T00:05:27;98764.47;;;-7.04;100.00
62712;BME280;48772;55.586;37.730;2023-11-21T00:07:53;98755.97;;;-7.09;100.00
62712;BME280;48772;55.586;37.730;2023-11-21T00:10:19;98752.41;;;-7.05;100.00
62712;BME280;48772;55.586;37.730;2023-11-21T00:12:45;98741.22;;;-7.07;100.00
62712;BME280;48772;55.586;37.730;2023-11-21T00:15:14;98761.53;;;-6.90;100.00
62712;BME280;48772;55.586;37.730;2023-11-21T00:17:41;98735.13;;;-7.03;100.00
62712;BME280;48772;55.586;37.730;2023-11-21T00:20:09;98767.66;;;-6.93;100.00
62712;BME280;48772;55.586;37.730;2023-11-21T00:22:39;98752.09;;;-6.93;100.00
62712;BME280;48772;55.586;37.730;2023-11-21T00:25:06;98756.34;;;-6.90;100.00
62712;BME280;48772;55.586;37.730;2023-11-21T00:27:38;98753.81;;;-6.92;100.00
62712;BME280;48772;55.586;37.730;2023-11-21T00:30:04;98759.88;;;-6.93;100.00
62712;BME280;48772;55.586;37.730;2023-11-21T00:32:33;98747.13;;;-7.00;100.00
62712;BME280;48772;55.586;37.730;2023-11-21T00:35:00;98750.47;;;-6.97;100.00
62712;BME280;48772;55.586;37.730;2023-11-21T00:37:25;98743.69;;;-7.01;100.00
62712;BME280;48772;55.586;37.730;2023-11-21T00:39:51;98712.13;;;-7.17;100.00
62712;BME280;48772;55.586;37.730;2023-11-21T00:42:17;98744.41;;;-6.96;100.00
62712;BME280;48772;55.586;37.730;2023-11-21T00:44:44;98756.28;;;-6.87;100.00
62712;BME280;48772;55.586;37.730;2023-11-21T00:47:11;98758.91;;;-6.89;100.00
62712;BME280;48772;55.586;37.730;2023-11-21T00:49:37;98720.47;;;-7.06;100.00
62712;BME280;48772;55.586;37.730;2023-11-21T00:52:05;98743.47;;;-6.92;100.00
62712;BME280;48772;55.586;37.730;2023-11-21T00:54:31;98757.13;;;-6.87;100.00
62712;BME280;48772;55.586;37.730;2023-11-21T00:56:58;98743.47;;;-6.92;100.00
62712;BME280;48772;55.586;37.730;2023-11-21T00:59:24;98720.72;;;-7.15;100.00
62712;BME280;48772;55.586;37.730;2023-11-21T01:01:50;98755.53;;;-6.91;100.00
62712;BME280;48772;55.586;37.730;2023-11-21T01:04:16;98729.00;;;-7.00;100.00
62712;BME280;48772;55.586;37.730;2023-11-21T01:06:42;98725.59;;;-7.03;100.00
62712;BME280;48772;55.586;37.730;2023-11-21T01:09:08;98752.91;;;-6.89;100.00
62712;BME280;48772;55.586;37.730;2023-11-21T01:11:36;98729.06;;;-7.03;100.00
62712;BME280;48772;55.586;37.730;2023-11-21T01:14:03;98744.38;;;-6.94;100.00
62712;BME280;48772;55.586;37.730;2023-11-21T01:16:31;98751.13;;;-6.89;100.00
62712;BME280;48772;55.586;37.730;2023-11-21T01:19:00;98720.50;;;-7.07;100.00
62712;BME280;48772;55.586;37.730;2023-11-21T01:21:29;98722.19;;;-7.04;100.00
62712;BME280;48772;55.586;37.730;2023-11-21T01:23:56;98737.56;;;-6.98;100.00
62712;BME280;48772;55.586;37.730;2023-11-21T01:26:22;98747.00;;;-6.96;100.00
62712;BME280;48772;55.586;37.730;2023-11-21T01:28:48;98747.84;;;-6.95;100.00
62712;BME280;48772;55.586;37.730;2023-11-21T01:31:15;98755.53;;;-6.91;100.00
62712;BME280;48772;55.586;37.730;2023-11-21T01:33:41;98740.91;;;-6.93;100.00
62712;BME280;48772;55.586;37.730;2023-11-21T01:36:07;98728.13;;;-7.01;100.00
62712;BME280;48772;55.586;37.730;2023-11-21T01:38:33;98721.41;;;-7.08;100.00
62712;BME280;48772;55.586;37.730;2023-11-21T01:40:59;98729.94;;;-7.03;100.00
62712;BME280;48772;55.586;37.730;2023-11-21T01:43:27;98747.09;;;-6.99;100.00
62712;BME280;48772;55.586;37.730;2023-11-21T01:45:56;98743.75;;;-7.04;100.00
62712;BME280;48772;55.586;37.730;2023-11-21T01:48:26;98745.38;;;-7.00;100.00
62712;BME280;48772;55.586;37.730;2023-11-21T01:50:53;98745.31;;;-6.97;100.00
62712;BME280;48772;55.586;37.730;2023-11-21T01:53:19;98752.94;;;-6.91;100.00
62712;BME280;48772;55.586;37.730;2023-11-21T01:55:46;98750.28;;;-6.88;100.00
62712;BME280;48772;55.586;37.730;2023-11-21T01:58:12;98746.06;;;-6.92;100.00
62712;BME280;48772;55.586;37.730;2023-11-21T02:00:38;98744.53;;;-7.00;100.00
62712;BME280;48772;55.586;37.730;2023-11-21T02:03:04;98759.09;;;-6.95;100.00
62712;BME280;48772;55.586;37.730;2023-11-21T02:05:31;98730.94;;;-7.08;100.00
62712;BME280;48772;55.586;37.730;2023-11-21T02:07:58;98741.19;;;-7.06;100.00
62712;BME280;48772;55.586;37.730;2023-11-21T02:10:26;98745.38;;;-7.00;100.00
62712;BME280;48772;55.586;37.730;2023-11-21T02:12:52;98707.06;;;-7.20;100.00
62712;BME280;48772;55.586;37.730;2023-11-21T02:15:18;98745.22;;;-6.94;100.00
62712;BME280;48772;55.586;37.730;2023-11-21T02:17:48;98722.28;;;-7.07;100.00
62712;BME280;48772;55.586;37.730;2023-11-21T02:20:17;98752.09;;;-6.93;100.00
62712;BME280;48772;55.586;37.730;2023-11-21T02:22:52;98749.56;;;-6.94;100.00
62712;BME280;48772;55.586;37.730;2023-11-21T02:25:31;98726.69;;;-7.13;100.00
62712;BME280;48772;55.586;37.730;2023-11-21T02:27:59;98735.97;;;-7.04;100.00
62712;BME280;48772;55.586;37.730;2023-11-21T02:30:26;98747.09;;;-6.99;100.00
62712;BME280;48772;55.586;37.730;2023-11-21T02:32:53;98713.13;;;-7.22;100.00
62712;BME280;48772;55.586;37.730;2023-11-21T02:35:22;98746.91;;;-6.93;100.00
62712;BME280;48772;55.586;37.730;2023-11-21T02:37:48;98710.41;;;-7.16;100.00
62712;BME280;48772;55.586;37.730;2023-11-21T02:40:14;98739.19;;;-6.94;100.00
62712;BME280;48772;55.586;37.730;2023-11-21T02:42:47;98746.00;;;-6.90;100.00
62712;BME280;48772;55.586;37.730;2023-11-21T02:45:14;98753.81;;;-6.92;100.00
62712;BME280;48772;55.586;37.730;2023-11-21T02:47:44;98758.91;;;-6.89;100.00
62712;BME280;48772;55.586;37.730;2023-11-21T02:50:10;98718.16;;;-7.16;100.00
62712;BME280;48772;55.586;37.730;2023-11-21T02:52:36;98754.84;;;-6.97;100.00
62712;BME280;48772;55.586;37.730;2023-11-21T02:55:03;98748.25;;;-7.11;100.00
62712;BME280;48772;55.586;37.730;2023-11-21T02:57:32;98759.28;;;-7.04;100.00
62712;BME280;48772;55.586;37.730;2023-11-21T02:59:58;98769.44;;;-6.95;100.00
62712;BME280;48772;55.586;37.730;2023-11-21T03:02:25;98788.25;;;-6.88;100.00
62712;BME280;48772;55.586;37.730;2023-11-21T03:04:51;98785.78;;;-6.93;100.00
62712;BME280;48772;55.586;37.730;2023-11-21T03:07:18;98751.88;;;-7.18;100.00
62712;BME280;48772;55.586;37.730;2023-11-21T03:09:45;98803.84;;;-6.90;100.00
62712;BME280;48772;55.586;37.730;2023-11-21T03:12:11;98782.53;;;-7.01;100.00
62712;BME280;48772;55.586;37.730;2023-11-21T03:14:41;98798.91;;;-6.99;100.00
62712;BME280;48772;55.586;37.730;2023-11-21T03:17:07;98753.75;;;-7.24;100.00
62712;BME280;48772;55.586;37.730;2023-11-21T03:19:33;98800.47;;;-6.92;100.00
62712;BME280;48772;55.586;37.730;2023-11-21T03:21:59;98781.56;;;-6.97;100.00
62712;BME280;48772;55.586;37.730;2023-11-21T03:24:25;98803.06;;;-6.92;100.00
62712;BME280;48772;55.586;37.730;2023-11-21T03:26:52;98760.44;;;-7.14;100.00
62712;BME280;48772;55.586;37.730;2023-11-21T03:29:18;98758.66;;;-7.14;100.00
62712;BME280;48772;55.586;37.730;2023-11-21T03:31:44;98788.53;;;-6.99;100.00
62712;BME280;48772;55.586;37.730;2023-11-21T03:34:16;98806.38;;;-6.87;100.00
62712;BME280;48772;55.586;37.730;2023-11-21T03:36:42;98757.78;;;-7.13;100.00
62712;BME280;48772;55.586;37.730;2023-11-21T03:39:07;98762.91;;;-7.11;100.00
62712;BME280;48772;55.586;37.730;2023-11-21T03:41:33;98784.91;;;-6.92;100.00
62712;BME280;48772;55.586;37.730;2023-11-21T03:43:59;98808.06;;;-6.86;100.00
62712;BME280;48772;55.586;37.730;2023-11-21T03:46:25;98810.66;;;-6.86;100.00
62712;BME280;48772;55.586;37.730;2023-11-21T03:48:51;98810.72;;;-6.89;100.00
62712;BME280;48772;55.586;37.730;2023-11-21T03:51:17;98813.28;;;-6.87;100.00
62712;BME280;48772;55.586;37.730;2023-11-21T03:53:43;98756.16;;;-7.17;100.00
62712;BME280;48772;55.586;37.730;2023-11-21T03:56:09;98785.19;;;-7.04;100.00
62712;BME280;48772;55.586;37.730;2023-11-21T03:58:35;98809.09;;;-6.93;100.00
62712;BME280;48772;55.586;37.730;2023-11-21T04:01:01;98752.94;;;-7.26;100.00
62712;BME280;48772;55.586;37.730;2023-11-21T04:03:27;98790.38;;;-7.04;100.00
62712;BME280;48772;55.586;37.730;2023-11-21T04:05:53;98792.94;;;-7.03;100.00
62712;BME280;48772;55.586;37.730;2023-11-21T04:08:19;98787.78;;;-7.04;100.00
62712;BME280;48772;55.586;37.730;2023-11-21T04:10:44;98784.47;;;-7.09;100.00
62712;BME280;48772;55.586;37.730;2023-11-21T04:13:10;98807.41;;;-6.94;100.00
62712;BME280;48772;55.586;37.730;2023-11-21T04:15:36;98803.13;;;-6.95;100.00
62712;BME280;48772;55.586;37.730;2023-11-21T04:18:02;98793.63;;;-6.96;100.00
62712;BME280;48772;55.586;37.730;2023-11-21T04:20:28;98803.84;;;-6.90;100.00
62712;BME280;48772;55.586;37.730;2023-11-21T04:22:54;98803.09;;;-6.93;100.00
62712;BME280;48772;55.586;37.730;2023-11-21T04:25:20;98803.97;;;-6.96;100.00
62712;BME280;48772;55.586;37.730;2023-11-21T04:27:46;98797.31;;;-7.04;100.00
62712;BME280;48772;55.586;37.730;2023-11-21T04:30:13;98789.66;;;-7.09;100.00
62712;BME280;48772;55.586;37.730;2023-11-21T04:32:40;98788.16;;;-7.19;100.00
62712;BME280;48772;55.586;37.730;2023-11-21T04:35:08;98809.41;;;-7.05;100.00
62712;BME280;48772;55.586;37.730;2023-11-21T04:37:36;98774.66;;;-7.32;100.00
62712;BME280;48772;55.586;37.730;2023-11-21T04:40:03;98790.75;;;-7.19;100.00
62712;BME280;48772;55.586;37.730;2023-11-21T04:42:35;98769.63;;;-7.38;100.00
62712;BME280;48772;55.586;37.730;2023-11-21T04:45:02;98811.41;;;-7.16;100.00
62712;BME280;48772;55.586;37.730;2023-11-21T04:47:30;98799.59;;;-7.29;100.00
62712;BME280;48772;55.586;37.730;2023-11-21T04:49:56;98818.13;;;-7.09;100.00
62712;BME280;48772;55.586;37.730;2023-11-21T04:52:22;98827.53;;;-7.05;100.00
62712;BME280;48772;55.586;37.730;2023-11-21T04:54:48;98733.09;;;-7.62;100.00
62712;BME280;48772;55.586;37.730;2023-11-21T04:57:14;98806.38;;;-7.24;100.00
62712;BME280;48772;55.586;37.730;2023-11-21T04:59:40;98814.00;;;-7.18;100.00
62712;BME280;48772;55.586;37.730;2023-11-21T05:02:06;98774.00;;;-7.41;100.00
62712;BME280;48772;55.586;37.730;2023-11-21T05:04:31;98833.59;;;-7.06;100.00
62712;BME280;48772;55.586;37.730;2023-11-21T05:06:57;98841.41;;;-7.07;100.00
62712;BME280;48772;55.586;37.730;2023-11-21T05:09:23;98815.06;;;-7.26;100.00
62712;BME280;48772;55.586;37.730;2023-11-21T05:11:49;98835.41;;;-7.10;100.00
62712;BME280;48772;55.586;37.730;2023-11-21T05:14:14;98820.97;;;-7.20;100.00
62712;BME280;48772;55.586;37.730;2023-11-21T05:16:40;98822.75;;;-7.22;100.00
62712;BME280;48772;55.586;37.730;2023-11-21T05:19:06;98826.19;;;-7.21;100.00
62712;BME280;48772;55.586;37.730;2023-11-21T05:21:33;98831.34;;;-7.20;100.00
62712;BME280;48772;55.586;37.730;2023-11-21T05:23:59;98788.94;;;-7.52;100.00
62712;BME280;48772;55.586;37.730;2023-11-21T05:26:26;98853.47;;;-7.07;100.00
62712;BME280;48772;55.586;37.730;2023-11-21T05:28:53;98834.59;;;-7.12;100.00
62712;BME280;48772;55.586;37.730;2023-11-21T05:31:20;98834.69;;;-7.16;100.00
62712;BME280;48772;55.586;37.730;2023-11-21T05:33:46;98834.81;;;-7.22;100.00
62712;BME280;48772;55.586;37.730;2023-11-21T05:36:13;98837.56;;;-7.28;100.00
62712;BME280;48772;55.586;37.730;2023-11-21T05:38:38;98831.50;;;-7.27;100.00
62712;BME280;48772;55.586;37.730;2023-11-21T05:41:04;98816.94;;;-7.31;100.00
62712;BME280;48772;55.586;37.730;2023-11-21T05:43:30;98830.47;;;-7.20;100.00
62712;BME280;48772;55.586;37.730;2023-11-21T05:45:59;98852.75;;;-7.13;100.00
62712;BME280;48772;55.586;37.730;2023-11-21T05:48:25;98850.25;;;-7.16;100.00
62712;BME280;48772;55.586;37.730;2023-11-21T05:50:52;98839.00;;;-7.17;100.00
62712;BME280;48772;55.586;37.730;2023-11-21T05:53:19;98861.19;;;-7.05;100.00
62712;BME280;48772;55.586;37.730;2023-11-21T05:55:45;98868.94;;;-7.03;100.00
62712;BME280;48772;55.586;37.730;2023-11-21T05:58:11;98876.69;;;-7.02;100.00
62712;BME280;48772;55.586;37.730;2023-11-21T06:00:39;98861.28;;;-7.08;100.00
62712;BME280;48772;55.586;37.730;2023-11-21T06:03:06;98827.97;;;-7.23;100.00
62712;BME280;48772;55.586;37.730;2023-11-21T06:05:33;98856.28;;;-7.16;100.00
62712;BME280;48772;55.586;37.730;2023-11-21T06:07:59;98855.31;;;-7.12;100.00
62712;BME280;48772;55.586;37.730;2023-11-21T06:10:27;98868.13;;;-7.07;100.00
62712;BME280;48772;55.586;37.730;2023-11-21T06:12:54;98884.28;;;-6.96;100.00
62712;BME280;48772;55.586;37.730;2023-11-21T06:15:21;98868.06;;;-7.04;100.00
62712;BME280;48772;55.586;37.730;2023-11-21T06:17:49;98877.56;;;-7.03;100.00
62712;BME280;48772;55.586;37.730;2023-11-21T06:20:18;98900.53;;;-6.88;100.00
62712;BME280;48772;55.586;37.730;2023-11-21T06:22:47;98859.59;;;-7.11;100.00
62712;BME280;48772;55.586;37.730;2023-11-21T06:25:14;98900.38;;;-6.82;100.00
62712;BME280;48772;55.586;37.730;2023-11-21T06:27:43;98896.84;;;-6.79;100.00
62712;BME280;48772;55.586;37.730;2023-11-21T06:30:10;98886.63;;;-6.84;100.00
62712;BME280;48772;55.586;37.730;2023-11-21T06:32:38;98866.94;;;-6.92;100.00
62712;BME280;48772;55.586;37.730;2023-11-21T06:35:06;98877.81;;;-6.77;100.00
62712;BME280;48772;55.586;37.730;2023-11-21T06:37:33;98875.72;;;-6.63;100.00
62712;BME280;48772;55.586;37.730;2023-11-21T06:40:00;98900.38;;;-6.47;100.00
62712;BME280;48772;55.586;37.730;2023-11-21T06:42:26;98892.63;;;-6.47;100.00
62712;BME280;48772;55.586;37.730;2023-11-21T06:44:53;98892.69;;;-6.50;100.00
62712;BME280;48772;55.586;37.730;2023-11-21T06:47:20;98887.56;;;-6.53;100.00
62712;BME280;48772;55.586;37.730;2023-11-21T06:49:46;98877.19;;;-6.53;100.00
62712;BME280;48772;55.586;37.730;2023-11-21T06:52:15;98865.69;;;-6.41;100.00
62712;BME280;48772;55.586;37.730;2023-11-21T06:54:42;98889.19;;;-6.15;100.00
62712;BME280;48772;55.586;37.730;2023-11-21T06:57:08;98881.53;;;-6.20;100.00
62712;BME280;48772;55.586;37.730;2023-11-21T06:59:34;98849.13;;;-6.36;100.00
62712;BME280;48772;55.586;37.730;2023-11-21T07:02:00;98848.31;;;-6.39;100.00
62712;BME280;48772;55.586;37.730;2023-11-21T07:04:25;98852.75;;;-6.43;100.00
62712;BME280;48772;55.586;37.730;2023-11-21T07:06:53;98889.50;;;-6.26;100.00
62712;BME280;48772;55.586;37.730;2023-11-21T07:09:19;98858.97;;;-6.50;100.00
62712;BME280;48772;55.586;37.730;2023-11-21T07:11:49;98841.09;;;-6.59;100.00
62712;BME280;48772;55.586;37.730;2023-11-21T07:14:15;98882.00;;;-6.38;100.00
62712;BME280;48772;55.586;37.730;2023-11-21T07:16:43;98879.22;;;-6.30;100.00
62712;BME280;48772;55.586;37.730;2023-11-21T07:19:09;98885.75;;;-6.16;100.00
62712;BME280;48772;55.586;37.730;2023-11-21T07:21:36;98860.34;;;-6.35;100.00
62712;BME280;48772;55.586;37.730;2023-11-21T07:24:03;98891.81;;;-6.17;100.00
62712;BME280;48772;55.586;37.730;2023-11-21T07:26:30;98894.75;;;-6.29;100.00
62712;BME280;48772;55.586;37.730;2023-11-21T07:28:56;98898.00;;;-6.21;100.00
62712;BME280;48772;55.586;37.730;2023-11-21T07:31:24;98888.38;;;-6.17;100.00
62712;BME280;48772;55.586;37.730;2023-11-21T07:33:51;98895.81;;;-6.04;100.00
62712;BME280;48772;55.586;37.730;2023-11-21T07:36:17;98889.56;;;-5.97;100.00
62712;BME280;48772;55.586;37.730;2023-11-21T07:38:44;98894.38;;;-5.83;100.00
62712;BME280;48772;55.586;37.730;2023-11-21T07:41:10;98874.31;;;-5.78;100.00
62712;BME280;48772;55.586;37.730;2023-11-21T07:43:37;98898.16;;;-5.35;100.00
62712;BME280;48772;55.586;37.730;2023-11-21T07:46:03;98865.34;;;-5.38;100.00
62712;BME280;48772;55.586;37.730;2023-11-21T07:48:33;98866.97;;;-5.34;100.00
62712;BME280;48772;55.586;37.730;2023-11-21T07:51:02;98875.19;;;-5.49;100.00
62712;BME280;48772;55.586;37.730;2023-11-21T07:53:32;98853.88;;;-5.60;100.00
62712;BME280;48772;55.586;37.730;2023-11-21T07:56:02;98884.97;;;-5.29;100.00
62712;BME280;48772;55.586;37.730;2023-11-21T07:58:28;98824.38;;;-5.57;100.00
62712;BME280;48772;55.586;37.730;2023-11-21T08:00:54;98858.88;;;-5.54;100.00
62712;BME280;48772;55.586;37.730;2023-11-21T08:03:20;98871.41;;;-5.39;100.00
62712;BME280;48772;55.586;37.730;2023-11-21T08:05:47;98877.00;;;-5.52;100.00
62712;BME280;48772;55.586;37.730;2023-11-21T08:08:13;98878.81;;;-5.54;100.00
62712;BME280;48772;55.586;37.730;2023-11-21T08:10:39;98869.47;;;-5.60;100.00
62712;BME280;48772;55.586;37.730;2023-11-21T08:13:05;98847.41;;;-5.76;100.00
62712;BME280;48772;55.586;37.730;2023-11-21T08:15:34;98877.75;;;-5.47;100.00
62712;BME280;48772;55.586;37.730;2023-11-21T08:18:02;98878.28;;;-5.36;100.00
62712;BME280;48772;55.586;37.730;2023-11-21T08:20:29;98861.84;;;-5.66;100.00
62712;BME280;48772;55.586;37.730;2023-11-21T08:22:55;98885.03;;;-5.60;100.00
62712;BME280;48772;55.586;37.730;2023-11-21T08:25:22;98885.13;;;-5.63;100.00
62712;BME280;48772;55.586;37.730;2023-11-21T08:27:48;98823.25;;;-5.78;100.00
62712;BME280;48772;55.586;37.730;2023-11-21T08:30:14;98838.50;;;-5.67;100.00
62712;BME280;48772;55.586;37.730;2023-11-21T08:32:42;98843.47;;;-5.58;100.00
62712;BME280;48772;55.586;37.730;2023-11-21T08:35:08;98876.94;;;-5.20;100.00
62712;BME280;48772;55.586;37.730;2023-11-21T08:37:34;98846.53;;;-5.18;100.00
62712;BME280;48772;55.586;37.730;2023-11-21T08:40:05;98865.38;;;-5.10;100.00
62712;BME280;48772;55.586;37.730;2023-11-21T08:42:35;98861.88;;;-5.09;100.00
62712;BME280;48772;55.586;37.730;2023-11-21T08:45:02;98878.09;;;-5.03;100.00
62712;BME280;48772;55.586;37.730;2023-11-21T08:47:31;98884.50;;;-5.13;100.00
62712;BME280;48772;55.586;37.730;2023-11-21T08:49:57;98867.63;;;-5.27;100.00
62712;BME280;48772;55.586;37.730;2023-11-21T08:52:24;98886.69;;;-5.28;100.00
62712;BME280;48772;55.586;37.730;2023-11-21T08:54:50;98859.66;;;-5.50;100.00
62712;BME280;48772;55.586;37.730;2023-11-21T08:57:23;98863.91;;;-5.48;100.00
62712;BME280;48772;55.586;37.730;2023-11-21T08:59:49;98872.59;;;-5.49;100.00
62712;BME280;48772;55.586;37.730;2023-11-21T09:02:27;98870.72;;;-5.44;100.00
62712;BME280;48772;55.586;37.730;2023-11-21T09:04:53;98896.38;;;-5.06;100.00
62712;BME280;48772;55.586;37.730;2023-11-21T09:07:19;98889.38;;;-4.75;100.00
62712;BME280;48772;55.586;37.730;2023-11-21T09:09:48;98877.38;;;-5.06;100.00
62712;BME280;48772;55.586;37.730;2023-11-21T09:12:15;98878.09;;;-5.03;100.00
62712;BME280;48772;55.586;37.730;2023-11-21T09:14:42;98887.28;;;-4.91;100.00
62712;BME280;48772;55.586;37.730;2023-11-21T09:17:10;98884.59;;;-4.88;100.00
62712;BME280;48772;55.586;37.730;2023-11-21T09:19:40;98901.75;;;-4.83;100.00
62712;BME280;48772;55.586;37.730;2023-11-21T09:22:06;98866.31;;;-5.13;100.00
62712;BME280;48772;55.586;37.730;2023-11-21T09:24:33;98895.59;;;-5.08;100.00
62712;BME280;48772;55.586;37.730;2023-11-21T09:27:00;98863.53;;;-5.36;100.00
62712;BME280;48772;55.586;37.730;2023-11-21T09:29:29;98885.84;;;-5.29;100.00
62712;BME280;48772;55.586;37.730;2023-11-21T09:31:55;98913.25;;;-5.19;100.00
62712;BME280;48772;55.586;37.730;2023-11-21T09:34:25;98912.28;;;-5.15;100.00
62712;BME280;48772;55.586;37.730;2023-11-21T09:36:51;98906.38;;;-5.20;100.00
62712;BME280;48772;55.586;37.730;2023-11-21T09:39:17;98913.34;;;-5.22;100.00
62712;BME280;48772;55.586;37.730;2023-11-21T09:41:51;98871.78;;;-5.51;100.00
62712;BME280;48772;55.586;37.730;2023-11-21T09:44:29;98911.91;;;-5.32;100.00
62712;BME280;48772;55.586;37.730;2023-11-21T09:46:59;98885.88;;;-5.59;100.00
62712;BME280;48772;55.586;37.730;2023-11-21T09:49:26;98917.56;;;-5.48;100.00
62712;BME280;48772;55.586;37.730;2023-11-21T09:51:55;98886.97;;;-5.68;100.00
62712;BME280;48772;55.586;37.730;2023-11-21T09:54:23;98899.34;;;-5.47;100.00
62712;BME280;48772;55.586;37.730;2023-11-21T09:56:50;98860.34;;;-5.74;100.00
62712;BME280;48772;55.586;37.730;2023-11-21T09:59:16;98918.16;;;-5.39;100.00
62712;BME280;48772;55.586;37.730;2023-11-21T10:01:42;98872.25;;;-5.67;100.00
62712;BME280;48772;55.586;37.730;2023-11-21T10:04:09;98896.16;;;-5.56;100.00
62712;BME280;48772;55.586;37.730;2023-11-21T10:06:41;98887.91;;;-5.70;100.00
62712;BME280;48772;55.586;37.730;2023-11-21T10:09:10;98899.88;;;-5.65;100.00
62712;BME280;48772;55.586;37.730;2023-11-21T10:11:41;98886.31;;;-5.74;100.00
62712;BME280;48772;55.586;37.730;2023-11-21T10:14:11;98918.03;;;-5.65;100.00
62712;BME280;48772;55.586;37.730;2023-11-21T10:16:41;98900.19;;;-5.75;100.00
62712;BME280;48772;55.586;37.730;2023-11-21T10:19:12;98923.44;;;-5.71;100.00
62712;BME280;48772;55.586;37.730;2023-11-21T10:21:39;98920.69;;;-5.66;100.00
62712;BME280;48772;55.586;37.730;2023-11-21T10:24:05;98919.78;;;-5.64;100.00
62712;BME280;48772;55.586;37.730;2023-11-21T10:26:32;98895.19;;;-5.81;100.00
62712;BME280;48772;55.586;37.730;2023-11-21T10:28:59;98899.53;;;-5.82;100.00
62712;BME280;48772;55.586;37.730;2023-11-21T10:31:33;98879.19;;;-5.97;100.00
62712;BME280;48772;55.586;37.730;2023-11-21T10:34:17;98899.34;;;-5.77;100.00
62712;BME280;48772;55.586;37.730;2023-11-21T10:36:45;98863.63;;;-5.97;100.00
62712;BME280;48772;55.586;37.730;2023-11-21T10:39:18;98891.94;;;-5.89;100.00
62712;BME280;48772;55.586;37.730;2023-11-21T10:41:45;98895.78;;;-6.02;100.00
62712;BME280;48772;55.586;37.730;2023-11-21T10:44:14;98876.19;;;-6.14;100.00
62712;BME280;48772;55.586;37.730;2023-11-21T10:46:50;98920.53;;;-5.91;100.00
62712;BME280;48772;55.586;37.730;2023-11-21T10:49:18;98920.50;;;-5.89;100.00
62712;BME280;48772;55.586;37.730;2023-11-21T10:51:45;98915.97;;;-5.83;100.00
62712;BME280;48772;55.586;37.730;2023-11-21T10:54:33;98895.59;;;-5.96;100.00
62712;BME280;48772;55.586;37.730;2023-11-21T11:02:23;98907.75;;;-5.97;100.00
62712;BME280;48772;55.586;37.730;2023-11-21T11:04:58;98925.78;;;-5.94;100.00
62712;BME280;48772;55.586;37.730;2023-11-21T11:07:27;98931.25;;;-6.03;100.00
62712;BME280;48772;55.586;37.730;2023-11-21T11:09:55;98910.78;;;-6.13;100.00
62712;BME280;48772;55.586;37.730;2023-11-21T11:12:21;98932.19;;;-6.05;100.00
62712;BME280;48772;55.586;37.730;2023-11-21T11:14:48;98932.19;;;-6.05;100.00
62712;BME280;48772;55.586;37.730;2023-11-21T11:17:14;98931.16;;;-6.00;100.00
62712;BME280;48772;55.586;37.730;2023-11-21T11:19:41;98865.31;;;-6.28;100.00
62712;BME280;48772;55.586;37.730;2023-11-21T11:25:14;98940.84;;;-5.76;100.00
62712;BME280;48772;55.586;37.730;2023-11-21T11:30:28;98943.03;;;-5.61;100.00
62712;BME280;48772;55.586;37.730;2023-11-21T11:38:46;98935.63;;;-5.74;100.00
62712;BME280;48772;55.586;37.730;2023-11-21T11:41:12;98936.19;;;-5.63;100.00
62712;BME280;48772;55.586;37.730;2023-11-21T11:43:38;98938.78;;;-5.63;100.00
62712;BME280;48772;55.586;37.730;2023-11-21T11:46:11;98932.28;;;-5.78;100.00
62712;BME280;48772;55.586;37.730;2023-11-21T11:48:41;98905.25;;;-6.01;100.00
62712;BME280;48772;55.586;37.730;2023-11-21T11:51:12;98950.44;;;-5.78;100.00
62712;BME280;48772;55.586;37.730;2023-11-21T11:53:46;98937.56;;;-5.81;100.00
62712;BME280;48772;55.586;37.730;2023-11-21T11:58:56;98949.50;;;-5.75;100.00
62712;BME280;48772;55.586;37.730;2023-11-21T12:01:24;98952.69;;;-5.66;100.00
62712;BME280;48772;55.586;37.730;2023-11-21T12:06:51;98949.13;;;-5.62;100.00
62712;BME280;48772;55.586;37.730;2023-11-21T12:11:45;98949.47;;;-5.74;100.00
62712;BME280;48772;55.586;37.730;2023-11-21T12:14:13;98929.94;;;-5.87;100.00
62712;BME280;48772;55.586;37.730;2023-11-21T12:16:40;98901.03;;;-6.05;100.00
62712;BME280;48772;55.586;37.730;2023-11-21T12:19:06;98961.53;;;-5.73;100.00
62712;BME280;48772;55.586;37.730;2023-11-21T12:21:32;98958.22;;;-5.78;100.00
62712;BME280;48772;55.586;37.730;2023-11-21T12:23:58;98957.22;;;-5.72;100.00
62712;BME280;48772;55.586;37.730;2023-11-21T12:26:24;98959.16;;;-5.80;100.00
62712;BME280;48772;55.586;37.730;2023-11-21T12:28:53;98961.91;;;-5.85;100.00
62712;BME280;48772;55.586;37.730;2023-11-21T12:31:23;98970.38;;;-5.80;100.00
62712;BME280;48772;55.586;37.730;2023-11-21T12:33:49;98968.28;;;-5.98;100.00
62712;BME280;48772;55.586;37.730;2023-11-21T12:36:16;98972.75;;;-6.03;100.00
62712;BME280;48772;55.586;37.730;2023-11-21T12:38:42;98949.81;;;-6.19;100.00
62712;BME280;48772;55.586;37.730;2023-11-21T12:41:11;98964.50;;;-6.18;100.00
62712;BME280;48772;55.586;37.730;2023-11-21T12:43:37;98966.34;;;-6.23;100.00
62712;BME280;48772;55.586;37.730;2023-11-21T12:46:09;98964.53;;;-6.20;100.00
62712;BME280;48772;55.586;37.730;2023-11-21T12:48:42;98937.03;;;-6.27;100.00
62712;BME280;48772;55.586;37.730;2023-11-21T12:51:09;98959.41;;;-6.23;100.00
62712;BME280;48772;55.586;37.730;2023-11-21T12:53:40;98966.47;;;-6.28;100.00
62712;BME280;48772;55.586;37.730;2023-11-21T12:56:11;98970.78;;;-6.28;100.00
62712;BME280;48772;55.586;37.730;2023-11-21T12:58:38;98978.03;;;-6.07;100.00
62712;BME280;48772;55.586;37.730;2023-11-21T13:01:08;98980.75;;;-6.12;100.00
62712;BME280;48772;55.586;37.730;2023-11-21T13:03:48;98977.28;;;-6.11;100.00
62712;BME280;48772;55.586;37.730;2023-11-21T13:06:17;98972.25;;;-6.17;100.00